Time;durP1;ratioP1;P1;durP2;ratioP2;P2;SDS_P1;SDS_P2;PMS_P1;PMS_P2;Temp;Humidity;BMP_temperature;BMP_pressure;BME280_temperature;BME280_humidity;BME280_pressure;Samples;Min_cycle;Max_cycle;Signal;HPM_P1;HPM_P2
2022/11/25 00:00:43;;;;;;;6.47;1.77;;;9.50;99.90;;;;;;10528052;28;20225;-64
2022/11/25 00:05:44;;;;;;;7.75;2.15;;;9.50;99.90;;;;;;10514125;28;20035;-65
2022/11/25 00:10:44;;;;;;;9.05;1.85;;;9.60;99.90;;;;;;10519307;28;20032;-65
2022/11/25 00:15:45;;;;;;;5.78;1.40;;;9.50;99.90;;;;;;10518236;28;20052;-62
2022/11/25 00:20:45;;;;;;;3.88;1.75;;;9.60;99.90;;;;;;10514520;28;20102;-62
2022/11/25 00:25:46;;;;;;;7.38;2.15;;;9.60;99.90;;;;;;10522578;28;20033;-61
2022/11/25 00:30:47;;;;;;;4.82;1.50;;;9.50;99.90;;;;;;10512623;28;20221;-63
2022/11/25 00:35:47;;;;;;;9.55;1.95;;;9.60;99.90;;;;;;10525489;28;20027;-63
2022/11/25 00:44:34;;;;;;;5.47;2.03;;;9.50;99.90;;;;;;10526353;28;20613;-63
2022/11/25 00:46:12;;;;;;;5.25;1.58;;;9.60;99.90;;;;;;10526311;28;20047;-62
2022/11/25 00:51:12;;;;;;;8.90;1.52;;;9.60;99.90;;;;;;10508916;28;20035;-62
2022/11/25 00:56:14;;;;;;;4.55;1.42;;;9.60;99.90;;;;;;10506909;28;20016;-62
2022/11/25 01:01:14;;;;;;;3.80;1.70;;;9.60;99.90;;;;;;10497922;28;20264;-63
2022/11/25 01:06:15;;;;;;;6.97;1.77;;;9.60;99.90;;;;;;10501733;28;20016;-61
2022/11/25 01:11:20;;;;;;;6.78;1.65;;;9.60;99.90;;;;;;10524991;28;20404;-61
2022/11/25 01:16:21;;;;;;;8.90;1.83;;;9.60;99.90;;;;;;10513820;28;20050;-62
2022/11/25 01:21:25;;;;;;;6.80;2.28;;;9.60;99.90;;;;;;10524978;28;20515;-64
2022/11/25 01:26:26;;;;;;;5.60;1.55;;;9.60;99.90;;;;;;10520900;28;20445;-62
2022/11/25 01:31:30;;;;;;;4.70;1.38;;;9.60;99.90;;;;;;10511188;28;20069;-62
2022/11/25 01:36:31;;;;;;;4.68;1.35;;;9.60;99.90;;;;;;10525730;28;20016;-62
2022/11/25 01:41:33;;;;;;;9.95;2.53;;;9.60;99.90;;;;;;10515846;28;20055;-62
2022/11/25 01:46:59;;;;;;;9.23;2.08;;;9.60;99.90;;;;;;10529871;28;20056;-61
2022/11/25 01:52:09;;;;;;;9.13;1.70;;;9.60;99.90;;;;;;10529615;28;20043;-62
2022/11/25 01:57:19;;;;;;;7.93;2.20;;;9.60;99.90;;;;;;10522295;28;20079;-61
2022/11/25 02:02:20;;;;;;;6.70;1.65;;;9.60;99.90;;;;;;10530962;28;20419;-63
2022/11/25 02:07:25;;;;;;;6.10;1.70;;;9.50;99.90;;;;;;10532360;28;20571;-61
2022/11/25 02:12:26;;;;;;;7.03;1.95;;;9.60;99.90;;;;;;10531760;28;20030;-61
2022/11/25 02:17:27;;;;;;;9.90;2.22;;;9.60;99.90;;;;;;10526463;28;20044;-61
2022/11/25 02:22:34;;;;;;;6.05;1.70;;;9.60;99.90;;;;;;10527600;28;20040;-61
2022/11/25 02:27:34;;;;;;;6.60;1.60;;;9.60;99.90;;;;;;10527599;28;20085;-61
2022/11/25 02:32:35;;;;;;;7.45;2.15;;;9.60;99.90;;;;;;10512838;28;20097;-61
2022/11/25 02:37:36;;;;;;;5.35;1.58;;;9.60;99.90;;;;;;10531522;28;20036;-61
2022/11/25 02:42:37;;;;;;;5.90;1.50;;;9.50;99.90;;;;;;10507396;28;20552;-62
2022/11/25 02:47:37;;;;;;;7.65;1.67;;;9.70;99.90;;;;;;10523341;28;20025;-61
2022/11/25 02:52:38;;;;;;;7.32;1.90;;;10.10;99.90;;;;;;10518927;28;20480;-62
2022/11/25 02:57:39;;;;;;;6.13;1.90;;;9.60;99.90;;;;;;10511408;28;20024;-62
2022/11/25 03:02:39;;;;;;;7.07;2.05;;;9.60;99.90;;;;;;10515391;28;20040;-61
2022/11/25 03:07:40;;;;;;;7.80;1.83;;;9.60;99.90;;;;;;10530108;28;20028;-62
2022/11/25 03:12:41;;;;;;;6.55;1.95;;;9.60;99.90;;;;;;10508200;28;20032;-61
2022/11/25 03:17:42;;;;;;;3.95;1.67;;;9.60;99.90;;;;;;10496587;28;20433;-63
2022/11/25 03:22:43;;;;;;;5.72;1.65;;;9.60;99.90;;;;;;10529276;28;20032;-61
2022/11/25 03:27:44;;;;;;;7.18;2.10;;;9.60;99.90;;;;;;10519568;28;20108;-62
2022/11/25 03:32:45;;;;;;;5.28;1.95;;;9.60;99.90;;;;;;10528936;28;20469;-61
2022/11/25 03:37:46;;;;;;;5.38;1.67;;;9.70;99.90;;;;;;10522813;28;20036;-61
2022/11/25 03:42:47;;;;;;;5.03;1.73;;;9.60;99.90;;;;;;10500778;28;20521;-61
2022/11/25 03:47:48;;;;;;;5.75;1.90;;;9.60;99.90;;;;;;10511183;28;20051;-61
2022/11/25 03:52:48;;;;;;;9.00;1.80;;;9.60;99.90;;;;;;10504838;28;20047;-60
2022/11/25 03:57:49;;;;;;;7.05;1.77;;;9.60;99.90;;;;;;10513924;28;20021;-62
2022/11/25 04:02:50;;;;;;;3.83;1.70;;;9.70;99.90;;;;;;10528234;28;20508;-62
2022/11/25 04:07:51;;;;;;;5.68;2.17;;;9.60;99.90;;;;;;10509896;28;20020;-61
2022/11/25 04:12:52;;;;;;;7.63;1.88;;;9.70;99.90;;;;;;10508764;28;20135;-61
2022/11/25 04:17:53;;;;;;;9.02;2.03;;;9.70;99.90;;;;;;10527706;28;20081;-61
2022/11/25 04:22:54;;;;;;;5.40;1.60;;;9.70;99.90;;;;;;10525354;28;20109;-61
2022/11/25 04:27:55;;;;;;;7.18;1.65;;;9.70;99.90;;;;;;10522530;28;20446;-61
2022/11/25 04:32:56;;;;;;;4.47;2.03;;;9.60;99.90;;;;;;10526711;28;20028;-61
2022/11/25 04:37:57;;;;;;;6.30;1.85;;;9.70;99.90;;;;;;10499040;28;20025;-61
2022/11/25 04:42:58;;;;;;;3.80;1.20;;;9.70;99.90;;;;;;10484633;28;20086;-62
2022/11/25 04:47:58;;;;;;;3.22;1.45;;;9.70;99.90;;;;;;10491927;28;20492;-61
2022/11/25 04:52:59;;;;;;;3.63;1.60;;;9.70;99.90;;;;;;10492158;28;20393;-61
2022/11/25 04:58:00;;;;;;;5.97;1.67;;;9.70;99.90;;;;;;10518653;28;20016;-61
2022/11/25 05:03:01;;;;;;;5.65;1.92;;;9.70;99.90;;;;;;10526052;28;20149;-61
2022/11/25 05:08:01;;;;;;;6.90;1.33;;;9.70;99.90;;;;;;10525717;28;20039;-61
2022/11/25 05:13:02;;;;;;;5.93;1.38;;;9.70;99.90;;;;;;10514023;28;20057;-64
2022/11/25 05:18:03;;;;;;;4.60;1.70;;;9.70;99.90;;;;;;10494046;28;20048;-62
2022/11/25 05:23:03;;;;;;;6.00;1.58;;;9.70;99.90;;;;;;10501116;28;20086;-61
2022/11/25 05:28:04;;;;;;;8.13;1.92;;;9.70;99.90;;;;;;10531030;28;20393;-61
2022/11/25 05:33:05;;;;;;;5.03;1.63;;;9.70;99.90;;;;;;10534063;28;20028;-62
2022/11/25 05:38:06;;;;;;;4.85;1.55;;;9.80;99.90;;;;;;10533696;28;20059;-61
2022/11/25 05:43:06;;;;;;;3.15;1.45;;;9.80;99.90;;;;;;10533316;28;20040;-61
2022/11/25 05:48:07;;;;;;;6.72;1.60;;;9.80;99.90;;;;;;10533658;28;20030;-61
2022/11/25 05:53:08;;;;;;;5.65;1.80;;;9.80;99.90;;;;;;10521500;28;20016;-61
2022/11/25 05:58:09;;;;;;;4.75;1.60;;;9.70;99.90;;;;;;10533441;28;20018;-61
2022/11/25 06:03:10;;;;;;;5.38;1.70;;;9.80;99.90;;;;;;10532118;28;20123;-62
2022/11/25 06:08:11;;;;;;;9.80;2.05;;;9.80;99.90;;;;;;10532549;28;20024;-62
2022/11/25 06:13:11;;;;;;;6.78;1.70;;;9.80;99.90;;;;;;10526226;28;20051;-62
2022/11/25 06:18:14;;;;;;;6.07;1.83;;;9.80;99.90;;;;;;10526595;28;20040;-61
2022/11/25 06:23:15;;;;;;;4.47;1.75;;;9.80;99.90;;;;;;10527387;28;20139;-63
2022/11/25 06:28:15;;;;;;;6.57;1.55;;;9.80;99.90;;;;;;10526994;28;20034;-62
2022/11/25 06:33:16;;;;;;;4.72;1.73;;;9.80;99.90;;;;;;10519467;28;20038;-62
2022/11/25 06:38:17;;;;;;;6.85;1.70;;;9.80;99.90;;;;;;10496100;28;20119;-61
2022/11/25 06:43:18;;;;;;;4.65;1.50;;;9.80;99.90;;;;;;10490207;28;20086;-62
2022/11/25 06:48:18;;;;;;;3.28;1.63;;;9.80;99.90;;;;;;10505655;28;20039;-63
2022/11/25 06:53:19;;;;;;;4.78;1.50;;;9.80;99.90;;;;;;10497773;28;20465;-63
2022/11/25 06:58:20;;;;;;;4.68;1.98;;;9.70;99.90;;;;;;10513391;28;20088;-62
2022/11/25 07:03:20;;;;;;;3.38;1.40;;;9.70;99.90;;;;;;10508097;28;20047;-61
2022/11/25 07:08:23;;;;;;;4.45;1.60;;;9.70;99.90;;;;;;10508357;28;20021;-62
2022/11/25 07:13:25;;;;;;;5.22;2.00;;;9.70;99.90;;;;;;10507621;28;20040;-62
2022/11/25 07:18:29;;;;;;;3.20;1.35;;;9.80;99.90;;;;;;10518871;28;20052;-62
2022/11/25 07:23:29;;;;;;;2.83;1.23;;;9.70;99.90;;;;;;10506580;28;20024;-61
2022/11/25 07:28:30;;;;;;;3.75;1.23;;;9.70;99.90;;;;;;10524146;28;20305;-64
2022/11/25 07:33:31;;;;;;;5.07;1.50;;;9.70;99.90;;;;;;10528941;28;20148;-62
2022/11/25 07:38:33;;;;;;;3.22;1.50;;;9.70;99.90;;;;;;10502300;28;20020;-64
2022/11/25 07:43:34;;;;;;;4.40;1.40;;;9.70;99.90;;;;;;10527611;28;20040;-61
2022/11/25 07:48:35;;;;;;;3.65;1.40;;;9.60;99.90;;;;;;10459938;28;20272;-62
2022/11/25 07:53:35;;;;;;;3.20;1.30;;;9.70;99.90;;;;;;10428043;28;20880;-65
2022/11/25 07:58:37;;;;;;;3.80;1.40;;;9.70;99.90;;;;;;10422170;28;20455;-64
2022/11/25 08:03:39;;;;;;;4.90;2.00;;;9.70;99.90;;;;;;10413179;28;20566;-61
2022/11/25 08:08:41;;;;;;;3.05;1.10;;;9.70;99.90;;;;;;10436519;28;20416;-61
2022/11/25 08:13:43;;;;;;;2.65;1.27;;;9.70;99.90;;;;;;10438354;28;20191;-61
2022/11/25 08:18:44;;;;;;;3.30;1.27;;;9.80;99.90;;;;;;10438233;28;20242;-62
2022/11/25 08:23:47;;;;;;;3.15;1.42;;;9.80;99.90;;;;;;10424996;28;20066;-61
2022/11/25 08:28:48;;;;;;;5.13;1.30;;;9.80;99.90;;;;;;10410646;28;20036;-62
2022/11/25 08:33:49;;;;;;;3.35;1.35;;;9.80;99.90;;;;;;10410504;28;20031;-62
2022/11/25 08:38:53;;;;;;;3.10;1.30;;;9.70;99.90;;;;;;10411965;28;20492;-62
2022/11/25 08:43:54;;;;;;;7.00;1.90;;;9.80;99.90;;;;;;10432723;28;20362;-61
2022/11/25 08:48:55;;;;;;;4.72;1.35;;;9.80;99.90;;;;;;10423330;28;20036;-62
2022/11/25 08:53:56;;;;;;;3.75;1.30;;;9.90;99.90;;;;;;10423283;28;20563;-61
2022/11/25 08:58:58;;;;;;;2.85;1.20;;;10.00;99.90;;;;;;10424405;28;20144;-62
2022/11/25 09:04:00;;;;;;;3.55;1.20;;;9.90;99.90;;;;;;10427594;28;20435;-62
2022/11/25 09:09:01;;;;;;;4.10;1.35;;;10.00;99.90;;;;;;10432057;28;20664;-62
2022/11/25 09:14:01;;;;;;;2.72;1.20;;;10.00;99.90;;;;;;10433523;28;20028;-61
2022/11/25 09:19:03;;;;;;;4.78;1.70;;;10.00;99.90;;;;;;10420303;28;20221;-61
2022/11/25 09:24:03;;;;;;;4.07;1.55;;;10.10;99.90;;;;;;10432288;28;20071;-61
2022/11/25 09:29:04;;;;;;;5.35;1.55;;;10.10;99.90;;;;;;10440119;28;20028;-62
2022/11/25 09:34:06;;;;;;;2.63;1.13;;;10.10;99.90;;;;;;10443327;28;20028;-62
2022/11/25 09:39:07;;;;;;;3.80;1.50;;;10.20;99.90;;;;;;10431535;28;20467;-64
2022/11/25 09:50:31;;;;;;;3.42;1.10;;;10.30;99.90;;;;;;10422414;28;20485;-62
2022/11/25 09:55:38;;;;;;;2.75;1.20;;;10.30;99.90;;;;;;10419827;28;20044;-62
2022/11/25 10:00:44;;;;;;;2.50;1.20;;;10.30;99.90;;;;;;10415985;28;20055;-62
2022/11/25 10:05:54;;;;;;;3.88;1.20;;;10.40;99.90;;;;;;10411625;28;20529;-61
2022/11/25 10:11:23;;;;;;;3.58;1.40;;;10.40;99.90;;;;;;10422977;28;20375;-63
2022/11/25 10:16:29;;;;;;;2.65;1.13;;;10.50;99.90;;;;;;10413506;28;20055;-61
2022/11/25 10:21:30;;;;;;;3.40;1.40;;;10.50;99.90;;;;;;10443875;28;20040;-65
2022/11/25 10:26:39;;;;;;;2.10;1.30;;;10.50;99.90;;;;;;10418141;28;20025;-63
2022/11/25 10:31:42;;;;;;;2.08;1.20;;;10.60;99.90;;;;;;10428506;28;20363;-61
2022/11/25 10:36:43;;;;;;;4.10;1.20;;;10.60;99.90;;;;;;10423960;28;20188;-63
2022/11/25 10:41:54;;;;;;;3.25;1.45;;;10.70;99.90;;;;;;10423302;28;20063;-62
2022/11/25 10:47:16;;;;;;;1.85;1.05;;;10.70;99.90;;;;;;10426095;28;20024;-61
2022/11/25 10:52:24;;;;;;;4.55;1.95;;;10.70;99.90;;;;;;10443197;28;20504;-65
2022/11/25 10:57:27;;;;;;;2.97;1.25;;;10.80;99.90;;;;;;10424766;28;20480;-64
2022/11/25 11:02:39;;;;;;;3.08;1.30;;;10.80;99.90;;;;;;10441744;28;20340;-61
2022/11/25 11:07:44;;;;;;;1.85;1.00;;;10.80;99.90;;;;;;10436578;28;20020;-62
2022/11/25 11:13:19;;;;;;;1.40;1.10;;;10.90;99.90;;;;;;10443948;28;20467;-63
2022/11/25 11:18:37;;;;;;;2.40;1.17;;;10.90;99.90;;;;;;10434809;28;20048;-61
2022/11/25 11:23:52;;;;;;;3.03;1.23;;;10.90;99.90;;;;;;10458349;28;20565;-62
2022/11/25 11:29:15;;;;;;;3.03;1.10;;;11.00;99.90;;;;;;10444930;28;20621;-63
2022/11/25 11:34:31;;;;;;;3.92;1.30;;;11.00;99.90;;;;;;10458429;28;20596;-62
2022/11/25 11:39:58;;;;;;;3.75;1.20;;;11.00;99.90;;;;;;10449351;28;20055;-64
2022/11/25 11:45:24;;;;;;;2.80;1.63;;;11.00;99.90;;;;;;10449652;28;20143;-62
2022/11/25 11:50:32;;;;;;;2.40;1.05;;;11.00;99.90;;;;;;10437244;28;20037;-62
2022/11/25 11:56:01;;;;;;;3.42;1.40;;;11.00;99.90;;;;;;10427180;28;20491;-61
2022/11/25 12:01:07;;;;;;;;;;;11.00;99.90;;;;;;10432890;28;20048;-62
2022/11/25 12:06:09;;;;;;;3.97;1.25;;;11.00;99.90;;;;;;10444579;28;19907;-62
2022/11/25 12:11:16;;;;;;;3.92;1.52;;;11.10;99.90;;;;;;10449180;28;20487;-65
2022/11/25 12:16:26;;;;;;;3.63;1.25;;;11.10;99.90;;;;;;10441598;28;20701;-61
2022/11/25 12:21:32;;;;;;;3.15;1.15;;;11.10;99.90;;;;;;10436658;28;20044;-61
2022/11/25 12:26:41;;;;;;;4.47;1.35;;;11.00;99.90;;;;;;10443739;28;20036;-62
2022/11/25 12:31:48;;;;;;;2.28;1.20;;;11.00;99.90;;;;;;10441224;28;20090;-62
2022/11/25 12:36:49;;;;;;;2.70;1.10;;;11.10;99.90;;;;;;10442081;28;20024;-62
2022/11/25 12:41:56;;;;;;;3.58;1.02;;;11.10;99.90;;;;;;10434010;28;20041;-65
2022/11/25 12:46:57;;;;;;;2.45;1.00;;;11.10;99.90;;;;;;10434883;28;20505;-62
2022/11/25 12:52:07;;;;;;;5.20;1.30;;;11.10;99.90;;;;;;10437314;28;20021;-61
2022/11/25 12:57:30;;;;;;;3.78;1.13;;;11.10;99.90;;;;;;10431683;28;20024;-61
2022/11/25 13:03:05;;;;;;;3.90;1.30;;;11.00;99.90;;;;;;10451594;28;20396;-62
2022/11/25 13:08:37;;;;;;;6.65;1.48;;;11.10;99.90;;;;;;10430303;28;20035;-62
2022/11/25 13:14:16;;;;;;;4.88;1.30;;;11.10;99.90;;;;;;10428234;28;20143;-61
2022/11/25 13:19:18;;;;;;;4.32;0.95;;;11.10;99.90;;;;;;10396186;28;20032;-61
2022/11/25 13:24:45;;;;;;;4.85;1.20;;;11.10;99.90;;;;;;10423048;28;20579;-62
2022/11/25 13:29:53;;;;;;;1.92;0.90;;;11.10;99.90;;;;;;10398192;28;20330;-60
2022/11/25 13:35:20;;;;;;;4.05;1.58;;;11.20;99.90;;;;;;10428419;28;20180;-61
2022/11/25 13:40:29;;;;;;;4.30;1.23;;;11.20;99.90;;;;;;10405214;28;20737;-61
2022/11/25 13:45:37;;;;;;;5.28;1.40;;;11.10;99.90;;;;;;10433819;28;20028;-61
2022/11/25 13:50:38;;;;;;;6.05;1.30;;;11.10;99.90;;;;;;10436351;28;20439;-63
2022/11/25 13:55:40;;;;;;;3.75;1.40;;;11.10;99.90;;;;;;10446497;28;20039;-66
2022/11/25 14:00:46;;;;;;;4.80;1.10;;;11.10;99.90;;;;;;10438848;28;20109;-62
2022/11/25 14:05:50;;;;;;;2.72;1.08;;;11.10;99.90;;;;;;10442580;28;20039;-62
2022/11/25 14:10:54;;;;;;;2.38;0.90;;;11.10;99.90;;;;;;10435312;28;20020;-62
2022/11/25 14:17:05;;;;;;;2.20;1.13;;;11.10;99.90;;;;;;10423803;28;20393;-62
2022/11/25 14:22:15;;;;;;;3.00;1.65;;;11.10;99.90;;;;;;10215259;28;20569;-62
2022/11/25 14:27:21;;;;;;;4.43;1.27;;;11.10;99.90;;;;;;10395441;28;20527;-62
2022/11/25 14:32:32;;;;;;;3.58;1.27;;;11.10;99.90;;;;;;10441716;28;20058;-62
2022/11/25 14:37:57;;;;;;;3.78;1.23;;;11.10;99.90;;;;;;10428199;28;20118;-62
2022/11/25 14:43:03;;;;;;;5.80;1.52;;;11.10;99.90;;;;;;10440816;28;20040;-62
2022/11/25 14:48:18;;;;;;;3.97;1.27;;;11.10;99.90;;;;;;10434067;28;20101;-63
2022/11/25 14:53:19;;;;;;;6.50;1.38;;;11.10;99.90;;;;;;10438206;28;20139;-62
2022/11/25 14:58:20;;;;;;;3.83;1.13;;;11.00;99.90;;;;;;10440883;28;20046;-62
2022/11/25 15:03:20;;;;;;;3.58;1.27;;;11.00;99.90;;;;;;10439173;28;20159;-63
2022/11/25 15:08:23;;;;;;;4.15;1.30;;;11.00;99.90;;;;;;10441589;28;20028;-62
2022/11/25 15:13:31;;;;;;;4.78;1.38;;;11.00;99.90;;;;;;10443649;28;20202;-63
2022/11/25 15:18:34;;;;;;;3.10;1.57;;;11.00;99.90;;;;;;10441646;28;20842;-62
2022/11/25 15:23:36;;;;;;;3.55;1.42;;;11.00;99.90;;;;;;10447449;28;20452;-67
2022/11/25 15:28:37;;;;;;;3.90;1.33;;;11.00;99.90;;;;;;10448944;28;20394;-65
2022/11/25 15:33:40;;;;;;;8.18;1.60;;;11.10;99.90;;;;;;10447769;28;20291;-69
2022/11/25 15:38:43;;;;;;;7.07;1.83;;;11.00;99.90;;;;;;10436401;28;20040;-63
2022/11/25 15:43:54;;;;;;;6.97;1.33;;;11.10;99.90;;;;;;10436716;28;20823;-70
2022/11/25 15:48:58;;;;;;;2.60;1.20;;;11.10;99.90;;;;;;10436419;28;20020;-69
2022/11/25 15:54:39;;;;;;;3.75;1.30;;;11.10;99.90;;;;;;10440165;28;20039;-62
2022/11/25 15:59:47;;;;;;;5.95;1.65;;;11.10;99.90;;;;;;10261904;28;20624;-69
2022/11/25 16:04:48;;;;;;;6.07;1.60;;;11.00;99.90;;;;;;10392067;28;20218;-64
2022/11/25 16:09:50;;;;;;;3.47;1.15;;;10.90;99.90;;;;;;10503547;28;20077;-68
2022/11/25 16:14:50;;;;;;;5.85;1.70;;;10.90;99.90;;;;;;10515140;28;20039;-69
2022/11/25 16:19:51;;;;;;;2.30;1.30;;;11.00;99.90;;;;;;10515587;28;20529;-63
2022/11/25 16:24:54;;;;;;;5.25;1.88;;;10.90;99.90;;;;;;10516269;28;20140;-63
2022/11/25 16:30:07;;;;;;;5.40;1.60;;;10.90;99.90;;;;;;10506446;28;20034;-62
2022/11/25 16:35:20;;;;;;;9.27;2.10;;;10.80;99.90;;;;;;10506210;28;20024;-64
2022/11/25 16:40:22;;;;;;;4.70;2.00;;;10.80;99.90;;;;;;10505973;28;20381;-62
2022/11/25 16:45:26;;;;;;;5.85;1.90;;;10.70;99.90;;;;;;10490126;28;20075;-64
2022/11/25 16:50:28;;;;;;;9.90;2.67;;;10.70;99.90;;;;;;10503613;28;20075;-61
2022/11/25 16:55:29;;;;;;;9.18;1.98;;;10.70;99.90;;;;;;10503132;28;20028;-66
2022/11/25 17:00:30;;;;;;;5.32;2.60;;;10.60;99.90;;;;;;10506624;28;20582;-67
2022/11/25 17:05:31;;;;;;;6.07;2.28;;;10.60;99.90;;;;;;10500863;28;20040;-68
2022/11/25 17:10:32;;;;;;;6.63;2.30;;;10.60;99.90;;;;;;10512044;28;20020;-65
2022/11/25 17:15:35;;;;;;;7.25;2.00;;;10.50;99.90;;;;;;10504109;28;20036;-63
2022/11/25 17:20:36;;;;;;;8.02;2.25;;;10.50;99.90;;;;;;10505745;28;20048;-63
2022/11/25 17:25:37;;;;;;;8.40;1.80;;;10.50;99.90;;;;;;10511790;28;20032;-65
2022/11/25 17:30:39;;;;;;;6.43;2.20;;;10.50;99.90;;;;;;10496973;28;20403;-62
2022/11/25 17:35:39;;;;;;;9.40;1.92;;;10.50;99.90;;;;;;10504653;28;20271;-61
2022/11/25 17:40:42;;;;;;;10.80;2.15;;;10.60;99.90;;;;;;10505504;28;20074;-63
2022/11/25 17:45:44;;;;;;;7.15;2.00;;;10.60;99.90;;;;;;10503544;28;20049;-61
2022/11/25 17:50:46;;;;;;;7.90;2.47;;;10.60;99.90;;;;;;10497265;28;20024;-61
2022/11/25 17:55:46;;;;;;;5.97;1.95;;;10.60;99.90;;;;;;10509702;28;20081;-63
2022/11/25 18:00:47;;;;;;;4.38;1.80;;;10.60;99.90;;;;;;10487790;28;20488;-62
2022/11/25 18:05:48;;;;;;;4.95;1.48;;;10.60;99.90;;;;;;10506376;28;20028;-64
2022/11/25 18:10:49;;;;;;;5.90;2.08;;;10.60;99.90;;;;;;10502357;28;20039;-62
2022/11/25 18:15:50;;;;;;;4.55;1.65;;;10.50;99.90;;;;;;10500614;28;20025;-61
2022/11/25 18:20:51;;;;;;;7.18;2.20;;;10.50;99.90;;;;;;10508647;28;20078;-61
2022/11/25 18:25:55;;;;;;;6.95;1.80;;;10.50;99.90;;;;;;10505931;28;20028;-61
2022/11/25 18:30:58;;;;;;;5.75;2.17;;;10.50;99.90;;;;;;10512742;28;20460;-64
2022/11/25 18:35:59;;;;;;;4.55;1.80;;;10.50;99.90;;;;;;10513274;28;20027;-61
2022/11/25 18:41:00;;;;;;;5.32;1.80;;;10.50;99.90;;;;;;10514829;28;20504;-62
2022/11/25 18:46:01;;;;;;;5.63;1.77;;;10.50;99.90;;;;;;10512176;28;20624;-63
2022/11/25 18:51:01;;;;;;;4.00;1.83;;;10.40;99.90;;;;;;10501215;28;20032;-62
2022/11/25 18:56:03;;;;;;;5.78;2.03;;;10.40;99.90;;;;;;10507555;28;20023;-61
2022/11/25 19:01:10;;;;;;;4.05;1.92;;;10.40;99.90;;;;;;10511461;28;20515;-61
2022/11/25 19:06:14;;;;;;;5.22;1.90;;;10.40;99.90;;;;;;10516115;28;20047;-63
2022/11/25 19:11:18;;;;;;;4.68;1.80;;;10.40;99.90;;;;;;10510807;28;20036;-61
2022/11/25 19:16:21;;;;;;;6.43;1.75;;;10.40;99.90;;;;;;10518542;28;20582;-61
2022/11/25 19:21:21;;;;;;;6.93;2.17;;;10.40;99.90;;;;;;10505601;28;20110;-61
2022/11/25 19:26:27;;;;;;;7.28;2.85;;;10.30;99.90;;;;;;10507929;28;20503;-62
2022/11/25 19:31:31;;;;;;;6.55;2.78;;;10.30;99.90;;;;;;10509084;28;20114;-61
2022/11/25 19:36:33;;;;;;;5.45;2.00;;;10.30;99.90;;;;;;10506866;28;20024;-61
2022/11/25 19:41:34;;;;;;;6.75;2.17;;;10.30;99.90;;;;;;10508698;28;20086;-61
2022/11/25 19:46:40;;;;;;;4.43;2.25;;;10.30;99.90;;;;;;10506447;28;20078;-64
2022/11/25 19:51:42;;;;;;;3.97;2.20;;;10.20;99.90;;;;;;10512721;28;20070;-63
2022/11/25 19:56:43;;;;;;;6.82;2.35;;;10.20;99.90;;;;;;10507768;28;20114;-62
2022/11/25 20:01:45;;;;;;;4.35;2.20;;;10.20;99.90;;;;;;10504457;28;20492;-62
2022/11/25 20:06:47;;;;;;;6.53;2.53;;;10.20;99.90;;;;;;10500074;28;20031;-62
2022/11/25 20:11:53;;;;;;;3.40;2.20;;;10.20;99.90;;;;;;10511205;28;20306;-61
2022/11/25 20:16:53;;;;;;;6.53;2.40;;;10.20;99.90;;;;;;10510018;28;20055;-64
2022/11/25 20:21:55;;;;;;;6.07;2.28;;;10.20;99.90;;;;;;10503392;28;20040;-63
2022/11/25 20:26:56;;;;;;;5.18;2.85;;;10.20;99.90;;;;;;10508185;28;20550;-65
2022/11/25 20:31:57;;;;;;;8.18;3.13;;;10.20;99.90;;;;;;10501496;28;20716;-62
2022/11/25 20:36:58;;;;;;;10.18;3.58;;;10.10;99.90;;;;;;10505207;28;20118;-65
2022/11/25 20:41:59;;;;;;;5.95;2.88;;;10.10;99.90;;;;;;10498840;28;20039;-65
2022/11/25 20:47:00;;;;;;;9.65;3.25;;;10.10;99.90;;;;;;10505776;28;20016;-65
2022/11/25 20:52:00;;;;;;;5.13;2.55;;;10.10;99.90;;;;;;10504509;28;20114;-64
2022/11/25 20:57:01;;;;;;;7.55;3.25;;;10.00;99.90;;;;;;10508329;28;20485;-64
2022/11/25 21:02:02;;;;;;;7.82;3.17;;;10.00;99.90;;;;;;10507848;28;20480;-62
2022/11/25 21:07:05;;;;;;;6.25;3.38;;;10.00;99.90;;;;;;10500361;28;20117;-62
2022/11/25 21:12:12;;;;;;;6.78;3.00;;;10.00;99.90;;;;;;10503716;28;20023;-62
2022/11/25 21:17:12;;;;;;;9.27;2.90;;;10.00;99.90;;;;;;10501812;28;20124;-62
2022/11/25 21:22:13;;;;;;;9.93;3.35;;;10.00;99.90;;;;;;10493368;28;20054;-62
2022/11/25 21:27:16;;;;;;;4.75;2.45;;;10.00;99.90;;;;;;10510947;28;20541;-63
2022/11/25 21:32:21;;;;;;;9.32;3.40;;;10.00;99.90;;;;;;10505261;28;20027;-61
2022/11/25 21:37:35;;;;;;;9.60;3.03;;;10.00;99.90;;;;;;10502406;28;20023;-62
2022/11/25 21:42:36;;;;;;;6.63;2.95;;;9.90;99.90;;;;;;10508801;28;20063;-62
2022/11/25 21:47:37;;;;;;;7.43;2.92;;;9.90;99.90;;;;;;10501945;28;20044;-62
2022/11/25 21:52:37;;;;;;;7.30;2.92;;;9.90;99.90;;;;;;10502147;28;20032;-62
2022/11/25 21:57:38;;;;;;;8.10;3.15;;;9.90;99.90;;;;;;10504205;28;20109;-61
2022/11/25 22:02:39;;;;;;;8.70;3.65;;;9.90;99.90;;;;;;10500442;28;20085;-62
2022/11/25 22:07:40;;;;;;;6.97;3.10;;;9.90;99.90;;;;;;10504417;28;20300;-65
2022/11/25 22:12:44;;;;;;;6.32;2.75;;;9.90;99.90;;;;;;10498912;28;20798;-61
2022/11/25 22:17:45;;;;;;;6.43;2.85;;;9.80;99.90;;;;;;10509620;28;20127;-62
2022/11/25 22:22:46;;;;;;;10.27;3.33;;;9.90;99.90;;;;;;10506358;28;20409;-62
2022/11/25 22:27:47;;;;;;;6.13;2.63;;;9.80;99.90;;;;;;10516950;28;20020;-63
2022/11/25 22:32:58;;;;;;;7.15;3.47;;;9.80;99.90;;;;;;10516204;28;20730;-62
2022/11/25 22:37:59;;;;;;;7.30;2.90;;;9.80;99.90;;;;;;10507130;28;20036;-61
2022/11/25 22:43:00;;;;;;;12.77;3.63;;;9.80;99.90;;;;;;10518294;28;20404;-61
2022/11/25 22:48:04;;;;;;;6.65;3.30;;;9.80;99.90;;;;;;10520306;28;20024;-61
2022/11/25 22:53:14;;;;;;;9.38;3.53;;;9.80;99.90;;;;;;10519863;28;20134;-62
2022/11/25 22:58:15;;;;;;;8.80;3.42;;;9.80;99.90;;;;;;10501894;28;20024;-63
2022/11/25 23:03:22;;;;;;;6.03;3.15;;;9.70;99.90;;;;;;10512001;28;20503;-61
2022/11/25 23:08:28;;;;;;;7.97;3.33;;;9.80;99.90;;;;;;10514007;28;20573;-61
2022/11/25 23:13:29;;;;;;;11.20;3.90;;;9.70;99.90;;;;;;10509711;28;20119;-63
2022/11/25 23:18:41;;;;;;;8.43;3.47;;;9.70;99.90;;;;;;10511727;28;20155;-64
2022/11/25 23:23:42;;;;;;;10.00;3.38;;;9.70;99.90;;;;;;10528223;22;20110;-62
2022/11/25 23:28:44;;;;;;;8.65;4.05;;;9.70;99.90;;;;;;10429371;28;20030;-61
2022/11/25 23:33:46;;;;;;;8.30;3.67;;;9.70;99.90;;;;;;10418787;28;20029;-62
2022/11/25 23:38:56;;;;;;;7.53;3.45;;;9.70;99.90;;;;;;10421182;28;20417;-64
2022/11/25 23:44:14;;;;;;;9.27;3.25;;;9.70;99.90;;;;;;10424972;28;20490;-61
2022/11/25 23:49:39;;;;;;;11.30;3.80;;;9.70;99.90;;;;;;10426137;28;20075;-64
2022/11/25 23:54:44;;;;;;;5.07;3.38;;;9.70;99.90;;;;;;10425354;28;20036;-65
2022/11/25 23:59:45;;;;;;;7.15;3.75;;;9.60;99.90;;;;;;10426591;28;20071;-63
